Time;durP1;ratioP1;P1;durP2;ratioP2;P2;SDS_P1;SDS_P2;PMS_P1;PMS_P2;Temp;Humidity;BMP_temperature;BMP_pressure;BME280_temperature;BME280_humidity;BME280_pressure;Samples;Min_cycle;Max_cycle;Signal;HPM_P1;HPM_P2
2022/11/11 00:02:18;;;;;;;;;;;;;;;7.52;100.00;100367.98;1693619;84;20246;-79
2022/11/11 00:05:04;;;;;;;;;;;;;;;7.51;100.00;100374.09;1687471;84;20229;-82
2022/11/11 00:07:51;;;;;;;;;;;;;;;7.50;100.00;100372.34;1694248;84;20248;-81
2022/11/11 00:10:35;;;;;;;;;;;;;;;7.49;100.00;100379.79;1710930;83;21153;-83
2022/11/11 00:13:20;;;;;;;;;;;;;;;7.47;100.00;100378.94;1706401;83;20580;-81
2022/11/11 00:16:16;;;;;;;;;;;;;;;7.46;100.00;100381.12;1693258;84;20210;-82
2022/11/11 00:25:25;;;;;;;;;;;;;;;7.43;100.00;100378.96;1665335;86;20216;-82
2022/11/11 00:28:09;;;;;;;;;;;;;;;7.43;100.00;100379.37;1686826;84;20206;-81
2022/11/11 00:31:08;;;;;;;;;;;;;;;7.40;100.00;100376.81;1693501;84;20221;-79
2022/11/11 00:33:53;;;;;;;;;;;;;;;7.41;100.00;100380.73;1696473;83;20208;-81
2022/11/11 00:36:39;;;;;;;;;;;;;;;7.39;100.00;100385.08;1713514;83;20181;-81
2022/11/11 00:39:24;;;;;;;;;;;;;;;7.40;100.00;100378.12;1701186;83;21247;-80
2022/11/11 00:42:08;;;;;;;;;;;;;;;7.40;100.00;100378.98;1694031;84;20273;-81
2022/11/11 00:44:53;;;;;;;;;;;;;;;7.40;100.00;100383.36;1693767;83;20461;-83
2022/11/11 00:51:00;;;;;;;;;;;;;;;7.42;100.00;100386.37;1705773;83;20240;-80
2022/11/11 00:53:44;;;;;;;;;;;;;;;7.42;100.00;100377.20;1713482;83;21252;-83
2022/11/11 00:56:29;;;;;;;;;;;;;;;7.44;100.00;100375.44;1713549;83;20197;-80
2022/11/11 00:59:14;;;;;;;;;;;;;;;7.46;100.00;100381.12;1695000;83;20228;-80
2022/11/11 01:01:59;;;;;;;;;;;;;;;7.46;100.00;100381.12;1692153;84;20222;-80
2022/11/11 01:04:44;;;;;;;;;;;;;;;7.44;100.00;100381.98;1695495;84;20470;-80
2022/11/11 01:07:28;;;;;;;;;;;;;;;7.46;100.00;100387.66;1694432;84;21114;-80
2022/11/11 01:10:36;;;;;;;;;;;;;;;7.45;100.00;100386.80;1693473;84;21021;-82
2022/11/11 01:13:10;;;;;;;;;;;;;;;7.44;100.00;100387.22;1694033;84;20517;-81
2022/11/11 01:15:49;;;;;;;;;;;;;;;7.44;100.00;100388.53;1693904;84;20167;-81
2022/11/11 01:18:36;;;;;;;;;;;;;;;7.44;100.00;100395.08;1665939;86;20919;-80
2022/11/11 01:21:22;;;;;;;;;;;;;;;7.43;100.00;100393.36;1674699;83;20587;-82
2022/11/11 01:24:08;;;;;;;;;;;;;;;7.42;100.00;100394.23;1693805;84;20184;-82
2022/11/11 01:26:53;;;;;;;;;;;;;;;7.42;100.00;100399.91;1693751;84;20210;-81
2022/11/11 01:29:39;;;;;;;;;;;;;;;7.40;100.00;100396.00;1693844;84;20202;-81
2022/11/11 01:32:25;;;;;;;;;;;;;;;7.40;100.00;100393.37;1701935;83;20228;-83
2022/11/11 01:35:10;;;;;;;;;;;;;;;7.42;100.00;100394.68;1713532;83;22353;-80
2022/11/11 01:37:57;;;;;;;;;;;;;;;7.42;100.00;100398.16;1713490;83;20232;-82
2022/11/11 01:40:43;;;;;;;;;;;;;;;7.44;100.00;100404.24;1712003;83;20208;-83
2022/11/11 01:43:28;;;;;;;;;;;;;;;7.43;100.00;100399.91;1707731;83;20207;-83
2022/11/11 01:46:29;;;;;;;;;;;;;;;7.44;100.00;100401.62;1694130;84;20683;-82
2022/11/11 01:49:35;;;;;;;;;;;;;;;7.45;100.00;100403.83;1693797;84;21139;-82
2022/11/11 01:52:37;;;;;;;;;;;;;;;7.46;100.00;100400.75;1671427;84;20192;-81
2022/11/11 01:55:22;;;;;;;;;;;;;;;7.47;100.00;100410.36;1664522;86;20214;-80
2022/11/11 01:58:10;;;;;;;;;;;;;;;7.47;100.00;100407.74;1681423;84;20175;-83
2022/11/11 02:00:56;;;;;;;;;;;;;;;7.49;100.00;100405.98;1691433;84;20918;-80
2022/11/11 02:05:41;;;;;;;;;;;;;;;7.50;100.00;100411.20;1694077;84;21073;-80
2022/11/11 02:06:30;;;;;;;;;;;;;;;7.51;100.00;100409.44;1689805;84;20186;-81
2022/11/11 02:09:16;;;;;;;;;;;;;;;7.53;100.00;100414.22;1674860;84;20319;-82
2022/11/11 02:15:06;;;;;;;;;;;;;;;7.55;100.00;100419.03;1691549;84;20219;-80
2022/11/11 02:17:51;;;;;;;;;;;;;;;7.55;100.00;100417.72;1693418;83;21279;-79
2022/11/11 02:20:40;;;;;;;;;;;;;;;7.56;100.00;100418.98;1693811;84;20147;-79
2022/11/11 02:23:45;;;;;;;;;;;;;;;7.57;100.00;100415.50;1689076;84;20238;-79
2022/11/11 02:26:30;;;;;;;;;;;;;;;7.58;100.00;100420.29;1657894;86;20583;-81
2022/11/11 02:29:17;;;;;;;;;;;;;;;7.61;100.00;100418.96;1686315;83;20214;-81
2022/11/11 02:32:03;;;;;;;;;;;;;;;7.63;100.00;100422.43;1696411;84;21509;-80
2022/11/11 02:34:48;;;;;;;;;;;;;;;7.65;100.00;100420.70;1697640;84;20205;-79
2022/11/11 02:37:33;;;;;;;;;;;;;;;7.68;100.00;100419.78;1695146;84;20215;-81
2022/11/11 02:40:38;;;;;;;;;;;;;;;7.71;100.00;100422.38;1685389;85;20768;-80
2022/11/11 02:43:22;;;;;;;;;;;;;;;7.75;100.00;100424.97;1685551;85;20179;-80
2022/11/11 02:46:07;;;;;;;;;;;;;;;7.77;100.00;100421.89;1666279;85;21564;-80
2022/11/11 02:48:53;;;;;;;;;;;;;;;7.79;100.00;100418.81;1659552;85;20510;-83
2022/11/11 02:51:37;;;;;;;;;;;;;;;7.85;100.00;100415.70;1656617;86;20162;-83
2022/11/11 02:54:22;;;;;;;;;;;;;;;7.87;100.00;100416.55;1660819;85;20259;-80
2022/11/11 02:57:07;;;;;;;;;;;;;;;7.88;100.00;100415.69;1685232;84;20211;-80
2022/11/11 02:59:52;;;;;;;;;;;;;;;7.91;100.00;100416.97;1685512;84;21133;-81
2022/11/11 03:02:38;;;;;;;;;;;;;;;7.93;100.00;100428.30;1685793;84;20623;-80
2022/11/11 03:05:23;;;;;;;;;;;;;;;7.94;100.00;100419.56;1690231;84;20238;-82
2022/11/11 03:08:08;;;;;;;;;;;;;;;7.95;100.00;100430.45;1685300;85;20148;-80
2022/11/11 03:10:52;;;;;;;;;;;;;;;7.95;100.00;100424.80;1684972;84;20231;-80
2022/11/11 03:13:37;;;;;;;;;;;;;;;7.96;100.00;100425.66;1685415;85;21916;-81
2022/11/11 03:19:27;;;;;;;;;;;;;;;7.98;100.00;100429.12;1685450;84;20483;-80
2022/11/11 03:22:12;;;;;;;;;;;;;;;8.02;100.00;100432.16;1685287;85;20198;-82
2022/11/11 03:28:01;;;;;;;;;;;;;;;8.04;100.00;100430.39;1671263;85;21570;-83
2022/11/11 03:30:47;;;;;;;;;;;;;;;8.04;100.00;100431.70;1668482;86;20160;-82
2022/11/11 03:33:32;;;;;;;;;;;;;;;8.06;100.00;100432.55;1665068;85;20369;-84
2022/11/11 03:36:17;;;;;;;;;;;;;;;8.05;100.00;100432.55;1678801;85;20184;-81
2022/11/11 03:39:02;;;;;;;;;;;;;;;8.09;100.00;100435.14;1659545;86;20216;-81
2022/11/11 03:41:47;;;;;;;;;;;;;;;8.09;100.00;100432.52;1663690;86;22448;-82
2022/11/11 03:44:32;;;;;;;;;;;;;;;8.10;100.00;100438.62;1675533;85;20227;-83
2022/11/11 03:47:17;;;;;;;;;;;;;;;8.10;100.00;100431.65;1685498;84;20206;-80
2022/11/11 03:50:02;;;;;;;;;;;;;;;8.10;100.00;100444.75;1685494;85;20858;-81
2022/11/11 03:52:47;;;;;;;;;;;;;;;8.11;100.00;100438.61;1674978;84;20529;-80
2022/11/11 03:55:32;;;;;;;;;;;;;;;8.15;100.00;100439.02;1684035;85;21090;-80
2022/11/11 03:58:17;;;;;;;;;;;;;;;8.18;100.00;100448.14;1684789;85;20254;-81
2022/11/11 04:10:21;;;;;;;;;;;;;;;8.18;100.00;100453.38;1679477;85;20523;-81
2022/11/11 04:16:07;;;;;;;;;;;;;;;8.21;100.00;100471.30;1641966;86;20322;-80
2022/11/11 04:21:55;;;;;;;;;;;;;;;8.23;100.00;100478.70;1677276;85;20181;-79
2022/11/11 04:27:43;;;;;;;;;;;;;;;8.28;100.00;100472.97;1685744;84;20775;-79
2022/11/11 04:30:28;;;;;;;;;;;;;;;8.31;100.00;100477.74;1689835;84;20240;-82
2022/11/11 04:33:13;;;;;;;;;;;;;;;8.30;100.00;100479.06;1697941;84;20174;-80
2022/11/11 04:35:58;;;;;;;;;;;;;;;8.30;100.00;100481.23;1657870;86;20201;-80
2022/11/11 04:41:46;;;;;;;;;;;;;;;8.33;100.00;100485.59;1684946;85;20503;-81
2022/11/11 04:47:36;;;;;;;;;;;;;;;8.31;100.00;100487.37;1686920;84;20195;-82
2022/11/11 04:50:22;;;;;;;;;;;;;;;8.31;100.00;100488.68;1685571;85;20183;-80
2022/11/11 04:53:12;;;;;;;;;;;;;;;8.30;100.00;100488.23;1690944;84;21848;-81
2022/11/11 04:59:15;;;;;;;;;;;;;;;8.27;100.00;100483.02;1697636;84;20252;-83
2022/11/11 05:05:04;;;;;;;;;;;;;;;8.26;100.00;100491.80;1676340;85;20175;-81
2022/11/11 05:10:53;;;;;;;;;;;;;;;8.25;100.00;100491.35;1685684;85;20213;-84
2022/11/11 05:22:52;;;;;;;;;;;;;;;8.30;100.00;100503.52;1695710;83;21110;-81
2022/11/11 05:25:36;;;;;;;;;;;;;;;8.32;100.00;100515.31;1685337;85;20730;-81
2022/11/11 05:28:23;;;;;;;;;;;;;;;8.31;100.00;100521.45;1676910;84;20177;-83
2022/11/11 05:31:07;;;;;;;;;;;;;;;8.32;100.00;100517.94;1667683;84;20203;-83
2022/11/11 05:33:53;;;;;;;;;;;;;;;8.30;100.00;100528.88;1681289;85;20371;-82
2022/11/11 05:36:37;;;;;;;;;;;;;;;8.29;100.00;100535.89;1685510;85;21876;-84
2022/11/11 05:39:22;;;;;;;;;;;;;;;8.30;100.00;100544.62;1685676;85;20258;-82
2022/11/11 05:42:07;;;;;;;;;;;;;;;8.32;100.00;100544.16;1675959;85;20241;-83
2022/11/11 05:44:52;;;;;;;;;;;;;;;8.34;100.00;100547.66;1666486;85;20205;-82
2022/11/11 05:47:36;;;;;;;;;;;;;;;8.37;100.00;100556.78;1665620;85;20495;-83
2022/11/11 05:50:21;;;;;;;;;;;;;;;8.40;100.00;100558.52;1668599;86;22238;-79
2022/11/11 05:53:05;;;;;;;;;;;;;;;8.41;100.00;100563.75;1651149;86;20202;-83
2022/11/11 05:55:52;;;;;;;;;;;;;;;8.44;100.00;100572.05;1663596;85;20185;-80
2022/11/11 05:58:38;;;;;;;;;;;;;;;8.46;100.00;100571.17;1665447;86;20197;-80
2022/11/11 06:01:23;;;;;;;;;;;;;;;8.46;100.00;100576.42;1671414;85;20213;-82
2022/11/11 06:04:07;;;;;;;;;;;;;;;8.47;100.00;100578.59;1687067;85;21262;-81
2022/11/11 06:06:52;;;;;;;;;;;;;;;8.49;100.00;100581.64;1682585;85;20144;-80
2022/11/11 06:09:37;;;;;;;;;;;;;;;8.51;100.00;100586.88;1685695;85;20176;-83
2022/11/11 06:12:22;;;;;;;;;;;;;;;8.51;100.00;100587.73;1671815;85;20477;-80
2022/11/11 06:15:08;;;;;;;;;;;;;;;8.50;100.00;100593.85;1667796;85;20219;-80
2022/11/11 06:17:53;;;;;;;;;;;;;;;8.48;100.00;100595.63;1679371;85;21356;-79
2022/11/11 06:20:39;;;;;;;;;;;;;;;8.49;100.00;100604.35;1682238;85;20136;-81
2022/11/11 06:23:25;;;;;;;;;;;;;;;8.50;100.00;100609.59;1663499;86;20241;-82
2022/11/11 06:26:13;;;;;;;;;;;;;;;8.52;100.00;100607.84;1673189;84;20206;-81
2022/11/11 06:28:58;;;;;;;;;;;;;;;8.53;100.00;100609.57;1688124;85;20222;-81
2022/11/11 06:31:44;;;;;;;;;;;;;;;8.52;100.00;100618.34;1691234;84;21089;-82
2022/11/11 06:34:29;;;;;;;;;;;;;;;8.53;100.00;100620.06;1690918;83;20231;-85
2022/11/11 06:37:14;;;;;;;;;;;;;;;8.54;100.00;100624.89;1687603;85;20171;-83
2022/11/11 06:39:58;;;;;;;;;;;;;;;8.58;100.00;100627.04;1680371;84;20510;-83
2022/11/11 06:42:45;;;;;;;;;;;;;;;8.60;100.00;100627.89;1667434;83;20213;-83
2022/11/11 06:45:32;;;;;;;;;;;;;;;8.64;100.00;100626.97;1693162;84;21153;-83
2022/11/11 06:48:17;;;;;;;;;;;;;;;8.68;100.00;100638.73;1684267;84;20262;-80
2022/11/11 06:51:04;;;;;;;;;;;;;;;8.70;100.00;100634.79;1686998;84;20267;-80
2022/11/11 06:53:48;;;;;;;;;;;;;;;8.69;100.00;100634.35;1688469;84;20148;-79
2022/11/11 06:56:33;;;;;;;;;;;;;;;8.68;100.00;100630.87;1665848;86;20189;-78
2022/11/11 06:59:18;;;;;;;;;;;;;;;8.70;100.00;100633.48;1675984;84;22693;-83
2022/11/11 07:02:03;;;;;;;;;;;;;;;8.67;100.00;100640.92;1689729;83;20251;-89
2022/11/11 07:04:47;;;;;;;;;;;;;;;8.64;100.00;100643.59;1685410;83;20198;-82
2022/11/11 07:07:33;;;;;;;;;;;;;;;8.65;100.00;100645.31;1684140;83;21135;-80
2022/11/11 07:10:17;;;;;;;;;;;;;;;8.64;100.00;100642.70;1690536;83;20226;-81
2022/11/11 07:13:07;;;;;;;;;;;;;;;8.64;100.00;100640.08;1687539;84;21868;-82
2022/11/11 07:15:52;;;;;;;;;;;;;;;8.66;100.00;100646.21;1679058;83;20293;-81
2022/11/11 07:18:36;;;;;;;;;;;;;;;8.67;100.00;100647.94;1684715;84;20152;-81
2022/11/11 07:21:22;;;;;;;;;;;;;;;8.67;100.00;100650.55;1688339;83;20147;-81
2022/11/11 07:24:07;;;;;;;;;;;;;;;8.69;100.00;100650.98;1682128;84;20218;-81
2022/11/11 07:26:51;;;;;;;;;;;;;;;8.73;100.00;100655.77;1683962;83;21136;-82
2022/11/11 07:29:36;;;;;;;;;;;;;;;8.74;100.00;100659.69;1683764;84;20431;-83
2022/11/11 07:32:21;;;;;;;;;;;;;;;8.74;100.00;100654.86;1686499;83;20623;-83
2022/11/11 07:35:06;;;;;;;;;;;;;;;8.76;100.00;100663.61;1683265;84;20490;-81
2022/11/11 07:37:51;;;;;;;;;;;;;;;8.80;100.00;100667.94;1685178;83;20221;-83
2022/11/11 07:40:37;;;;;;;;;;;;;;;8.86;100.00;100666.58;1687259;84;21258;-82
2022/11/11 07:43:24;;;;;;;;;;;;;;;8.90;100.00;100665.66;1686920;84;20200;-81
2022/11/11 07:46:08;;;;;;;;;;;;;;;8.91;100.00;100672.66;1682839;84;20405;-82
2022/11/11 07:48:53;;;;;;;;;;;;;;;8.94;100.00;100673.05;1688441;84;21092;-83
2022/11/11 07:51:38;;;;;;;;;;;;;;;8.96;100.00;100680.91;1685089;84;20238;-78
2022/11/11 07:54:23;;;;;;;;;;;;;;;8.98;100.00;100676.52;1685174;83;21071;-82
2022/11/11 07:57:07;;;;;;;;;;;;;;;8.98;100.00;100676.09;1680473;84;20171;-83
2022/11/11 07:59:53;;;;;;;;;;;;;;;9.01;100.00;100679.11;1683875;83;21173;-81
2022/11/11 08:02:39;;;;;;;;;;;;;;;9.01;100.00;100673.86;1679127;83;20214;-80
2022/11/11 08:05:24;;;;;;;;;;;;;;;9.05;100.00;100680.84;1685166;84;20151;-82
2022/11/11 08:08:10;;;;;;;;;;;;;;;9.06;100.00;100682.14;1685023;83;21659;-81
2022/11/11 08:10:55;;;;;;;;;;;;;;;9.05;100.00;100686.95;1682255;84;20503;-82
2022/11/11 08:13:39;;;;;;;;;;;;;;;9.06;100.00;100679.94;1687950;84;20950;-82
2022/11/11 08:16:24;;;;;;;;;;;;;;;9.08;100.00;100691.32;1686513;83;20510;-81
2022/11/11 08:19:08;;;;;;;;;;;;;;;9.08;100.00;100693.95;1688538;84;20490;-79
2022/11/11 08:21:54;;;;;;;;;;;;;;;9.10;100.00;100694.80;1695353;83;21049;-83
2022/11/11 08:24:39;;;;;;;;;;;;;;;9.11;100.00;100697.41;1676433;83;20182;-79
2022/11/11 08:27:24;;;;;;;;;;;;;;;9.15;100.00;100696.93;1685699;83;20248;-82
2022/11/11 08:30:09;;;;;;;;;;;;;;;9.18;100.00;100700.84;1681686;83;20145;-81
2022/11/11 08:33:00;;;;;;;;;;;;;;;9.22;100.00;100706.93;1688135;83;20194;-81
2022/11/11 08:35:45;;;;;;;;;;;;;;;9.25;100.00;100699.89;1693661;83;21154;-81
2022/11/11 08:38:30;;;;;;;;;;;;;;;9.28;100.00;100706.42;1680836;84;20245;-83
2022/11/11 08:41:15;;;;;;;;;;;;;;;9.30;100.00;100706.41;1681822;83;20210;-81
2022/11/11 08:44:00;;;;;;;;;;;;;;;9.33;100.00;100708.13;1672343;83;20237;-86
2022/11/11 08:46:45;;;;;;;;;;;;;;;9.35;100.00;100699.81;1692567;84;20226;-85
2022/11/11 08:49:30;;;;;;;;;;;;;;;9.37;100.00;100695.41;1681972;84;21816;-79
2022/11/11 08:52:15;;;;;;;;;;;;;;;9.38;100.00;100691.87;1704167;83;20213;-80
2022/11/11 08:55:00;;;;;;;;;;;;;;;9.37;100.00;100702.83;1698342;83;20506;-82
2022/11/11 08:57:45;;;;;;;;;;;;;;;9.38;100.00;100703.69;1695705;83;20284;-81
2022/11/11 09:00:31;;;;;;;;;;;;;;;9.40;100.00;100700.63;1691307;83;20211;-83
2022/11/11 09:03:16;;;;;;;;;;;;;;;9.45;100.00;100696.19;1693566;83;21066;-81
2022/11/11 09:06:00;;;;;;;;;;;;;;;9.54;100.00;100696.08;1689000;83;20267;-82
2022/11/11 09:08:45;;;;;;;;;;;;;;;9.63;100.00;100701.23;1706712;83;20168;-87
2022/11/11 09:11:35;;;;;;;;;;;;;;;9.66;100.00;100701.17;1682374;84;20175;-84
2022/11/11 09:14:19;;;;;;;;;;;;;;;9.69;100.00;100697.66;1705503;83;20993;-85
2022/11/11 09:17:03;;;;;;;;;;;;;;;9.72;100.00;100695.45;1695985;83;21150;-79
2022/11/11 09:19:48;;;;;;;;;;;;;;;9.71;100.00;100696.33;1686317;84;20789;-82
2022/11/11 09:22:43;;;;;;;;;;;;;;;9.69;100.00;100699.42;1694021;84;20143;-82
2022/11/11 09:25:28;;;;;;;;;;;;;;;9.66;100.00;100698.55;1685624;84;20214;-85
2022/11/11 09:28:14;;;;;;;;;;;;;;;9.65;100.00;100699.91;1686586;84;20159;-85
2022/11/11 09:31:02;;;;;;;;;;;;;;;9.65;100.00;100695.97;1664769;84;21834;-84
2022/11/11 09:33:47;;;;;;;;;;;;;;;9.65;100.00;100688.94;1683024;84;20621;-85
2022/11/11 09:36:32;;;;;;;;;;;;;;;9.65;100.00;100694.20;1685610;84;20240;-84
2022/11/11 09:39:17;;;;;;;;;;;;;;;9.64;100.00;100685.02;1690313;84;20206;-80
2022/11/11 09:42:18;;;;;;;;;;;;;;;9.65;100.00;100686.31;1669815;84;20229;-86
2022/11/11 09:45:22;;;;;;;;;;;;;;;9.65;100.00;100685.00;1668977;84;21825;-83
2022/11/11 09:48:26;;;;;;;;;;;;;;;9.64;100.00;100692.45;1682054;83;20250;-80
2022/11/11 09:51:14;;;;;;;;;;;;;;;9.64;100.00;100689.82;1693475;83;20181;-81
2022/11/11 09:54:02;;;;;;;;;;;;;;;9.66;100.00;100693.30;1698182;83;20211;-79
2022/11/11 09:56:47;;;;;;;;;;;;;;;9.69;100.00;100685.83;1699009;83;20199;-83
2022/11/11 09:59:36;;;;;;;;;;;;;;;9.71;100.00;100687.13;1692259;83;21136;-84
2022/11/11 10:02:24;;;;;;;;;;;;;;;9.71;100.00;100685.81;1684969;84;20202;-82
2022/11/11 10:05:14;;;;;;;;;;;;;;;9.76;100.00;100687.94;1676640;84;20210;-82
2022/11/11 10:08:28;;;;;;;;;;;;;;;9.78;100.00;100683.52;1703437;83;20169;-82
2022/11/11 10:11:24;;;;;;;;;;;;;;;9.81;100.00;100683.49;1696067;83;20202;-81
2022/11/11 10:14:09;;;;;;;;;;;;;;;9.84;100.00;100680.83;1678515;83;21107;-83
2022/11/11 10:17:02;;;;;;;;;;;;;;;9.84;100.00;100684.77;1679952;84;20195;-83
2022/11/11 10:19:56;;;;;;;;;;;;;;;9.84;100.00;100692.66;1710401;83;20522;-82
2022/11/11 10:22:41;;;;;;;;;;;;;;;9.80;100.00;100692.25;1711040;83;20679;-85
2022/11/11 10:25:26;;;;;;;;;;;;;;;9.78;100.00;100688.78;1692651;83;20206;-81
2022/11/11 10:28:15;;;;;;;;;;;;;;;9.82;100.00;100693.98;1677819;84;21168;-82
2022/11/11 10:31:00;;;;;;;;;;;;;;;9.81;100.00;100686.98;1672849;85;20202;-88
2022/11/11 10:34:05;;;;;;;;;;;;;;;9.82;100.00;100689.19;1685468;85;20218;-87
2022/11/11 10:36:55;;;;;;;;;;;;;;;9.85;100.00;100690.44;1672070;84;20592;-85
2022/11/11 10:40:07;;;;;;;;;;;;;;;9.85;100.00;100694.37;1662799;84;20175;-80
2022/11/11 10:42:52;;;;;;;;;;;;;;;9.83;100.00;100686.96;1684528;83;21117;-87
2022/11/11 10:46:07;;;;;;;;;;;;;;;9.89;100.00;100677.69;1681168;84;20180;-84
2022/11/11 10:49:01;;;;;;;;;;;;;;;9.94;100.00;100679.81;1677102;85;20168;-85
2022/11/11 10:51:52;;;;;;;;;;;;;;;9.97;100.00;100677.15;1658820;86;20151;-82
2022/11/11 10:54:44;;;;;;;;;;;;;;;10.00;100.00;100674.48;1662205;85;20159;-85
2022/11/11 10:57:32;;;;;;;;;;;;;;;10.04;100.00;100680.11;1671185;84;21567;-84
2022/11/11 11:00:17;;;;;;;;;;;;;;;10.07;100.00;100677.01;1682837;84;21001;-86
2022/11/11 11:03:23;;;;;;;;;;;;;;;10.10;100.00;100679.60;1693255;84;20183;-84
2022/11/11 11:06:26;;;;;;;;;;;;;;;10.14;100.00;100678.23;1685213;84;20252;-86
2022/11/11 11:09:19;;;;;;;;;;;;;;;10.16;100.00;100675.58;1710343;83;20519;-83
2022/11/11 11:12:16;;;;;;;;;;;;;;;10.18;100.00;100683.00;1703221;83;21203;-89
2022/11/11 11:15:05;;;;;;;;;;;;;;;10.18;100.00;100676.42;1722101;83;20200;-80
2022/11/11 11:18:05;;;;;;;;;;;;;;;10.23;100.00;100672.82;1725098;82;20255;-82
2022/11/11 11:20:55;;;;;;;;;;;;;;;10.31;100.00;100674.03;1696911;83;20260;-81
2022/11/11 11:23:43;;;;;;;;;;;;;;;10.38;100.00;100675.70;1713902;82;20260;-81
2022/11/11 11:26:35;;;;;;;;;;;;;;;10.46;100.00;100670.80;1704948;83;21244;-83
2022/11/11 11:29:25;;;;;;;;;;;;;;;10.51;99.91;100668.95;1693376;83;20540;-81
2022/11/11 11:32:16;;;;;;;;;;;;;;;10.53;99.19;100663.22;1692142;83;20239;-83
2022/11/11 11:35:01;;;;;;;;;;;;;;;10.52;98.58;100669.36;1693968;83;20258;-82
2022/11/11 11:37:49;;;;;;;;;;;;;;;10.53;97.33;100668.48;1693599;84;20172;-81
2022/11/11 11:40:57;;;;;;;;;;;;;;;10.56;96.84;100665.34;1693996;84;20140;-85
2022/11/11 11:43:42;;;;;;;;;;;;;;;10.64;96.12;100669.19;1690016;84;20224;-85
2022/11/11 11:46:37;;;;;;;;;;;;;;;10.80;96.29;100672.88;1696170;83;20228;-79
2022/11/11 11:49:38;;;;;;;;;;;;;;;11.17;96.58;100666.95;1713564;83;20244;-80
2022/11/11 11:52:47;;;;;;;;;;;;;;;11.47;94.81;100679.53;1695904;83;20215;-89
2022/11/11 11:55:43;;;;;;;;;;;;;;;11.46;92.52;100671.19;1693960;84;21159;-87
2022/11/11 11:58:34;;;;;;;;;;;;;;;11.34;91.12;100676.71;1694725;83;21192;-86
2022/11/11 12:01:23;;;;;;;;;;;;;;;11.20;91.46;100679.61;1707198;83;20203;-86
2022/11/11 12:04:30;;;;;;;;;;;;;;;11.10;91.03;100677.59;1693905;83;20175;-80
2022/11/11 12:07:43;;;;;;;;;;;;;;;11.02;90.82;100676.00;1710916;83;20205;-81
2022/11/11 12:10:51;;;;;;;;;;;;;;;10.93;90.89;100679.21;1685750;83;21143;-83
2022/11/11 12:13:59;;;;;;;;;;;;;;;11.35;91.28;100679.78;1665905;85;20653;-83
2022/11/11 12:16:50;;;;;;;;;;;;;;;12.14;91.12;100675.52;1665857;86;20153;-81
2022/11/11 12:19:44;;;;;;;;;;;;;;;13.53;87.84;100671.61;1632568;84;20944;-81
2022/11/11 12:22:45;;;;;;;;;;;;;;;14.78;82.45;100657.22;1670311;84;20209;-80
2022/11/11 12:26:00;;;;;;;;;;;;;;;15.94;77.90;100661.45;1685460;84;22287;-80
2022/11/11 12:29:04;;;;;;;;;;;;;;;17.16;73.47;100658.28;1686200;84;20140;-82
2022/11/11 12:32:19;;;;;;;;;;;;;;;18.20;62.34;100660.17;1665921;86;20217;-82
2022/11/11 12:35:30;;;;;;;;;;;;;;;18.56;58.28;100659.33;1676758;84;20210;-84
2022/11/11 12:38:37;;;;;;;;;;;;;;;18.88;56.30;100660.89;1678608;84;20221;-87
2022/11/11 12:41:25;;;;;;;;;;;;;;;19.20;54.08;100661.03;1689447;83;22019;-84
2022/11/11 12:44:11;;;;;;;;;;;;;;;19.36;51.95;100672.23;1693734;83;20211;-88
2022/11/11 12:47:12;;;;;;;;;;;;;;;18.50;51.18;100669.44;1679116;83;20209;-87
2022/11/11 12:50:06;;;;;;;;;;;;;;;17.17;53.46;100680.83;1680537;84;20191;-85
2022/11/11 12:53:07;;;;;;;;;;;;;;;16.15;57.46;100684.98;1684179;83;20470;-89
2022/11/11 12:56:01;;;;;;;;;;;;;;;15.73;60.07;100686.11;1684167;83;22271;-81
2022/11/11 12:58:58;;;;;;;;;;;;;;;16.28;61.29;100680.03;1690446;83;20187;-92
2022/11/11 13:01:55;;;;;;;;;;;;;;;16.94;59.78;100680.48;1664969;84;20177;-82
2022/11/11 13:05:16;;;;;;;;;;;;;;;17.50;55.89;100682.06;1687671;83;20262;-86
2022/11/11 13:08:30;;;;;;;;;;;;;;;17.66;54.54;100692.42;1679544;84;20129;-83
2022/11/11 13:11:34;;;;;;;;;;;;;;;16.96;55.34;100694.56;1684408;84;21111;-80
2022/11/11 13:14:34;;;;;;;;;;;;;;;15.81;56.93;100698.66;1692241;83;20213;-81
2022/11/11 13:17:20;;;;;;;;;;;;;;;14.95;60.41;100705.67;1692617;83;20940;-80
2022/11/11 13:20:41;;;;;;;;;;;;;;;14.26;62.99;100710.05;1685713;83;20198;-78
2022/11/11 13:23:27;;;;;;;;;;;;;;;13.71;65.81;100720.47;1692363;84;20485;-80
2022/11/11 13:26:21;;;;;;;;;;;;;;;13.11;68.53;100719.41;1691952;84;21133;-81
2022/11/11 13:29:26;;;;;;;;;;;;;;;12.76;71.18;100723.79;1683567;84;20218;-78
2022/11/11 13:32:13;;;;;;;;;;;;;;;12.43;73.04;100723.70;1689987;84;20217;-82
2022/11/11 13:34:58;;;;;;;;;;;;;;;12.10;74.66;100727.95;1685710;84;20185;-81
2022/11/11 13:37:43;;;;;;;;;;;;;;;11.86;76.13;100736.30;1691372;84;20214;-81
2022/11/11 13:40:33;;;;;;;;;;;;;;;11.71;77.20;100741.89;1678657;84;21132;-81
2022/11/11 13:43:21;;;;;;;;;;;;;;;11.58;78.08;100743.88;1675684;84;20513;-80
2022/11/11 13:46:06;;;;;;;;;;;;;;;11.41;79.39;100745.52;1691114;84;20218;-78
2022/11/11 13:48:51;;;;;;;;;;;;;;;11.23;80.53;100744.53;1685151;84;20265;-80
2022/11/11 13:51:42;;;;;;;;;;;;;;;11.06;81.46;100750.98;1676718;84;20172;-83
2022/11/11 13:54:37;;;;;;;;;;;;;;;10.96;82.46;100758.16;1686757;84;20183;-84
2022/11/11 13:57:25;;;;;;;;;;;;;;;10.90;83.09;100755.62;1688531;84;20202;-83
2022/11/11 14:00:20;;;;;;;;;;;;;;;10.85;83.69;100761.86;1703659;83;20275;-79
2022/11/11 14:03:22;;;;;;;;;;;;;;;10.80;84.27;100761.06;1702036;83;20219;-79
2022/11/11 14:06:19;;;;;;;;;;;;;;;10.71;84.50;100762.08;1689694;84;20494;-81
2022/11/11 14:09:06;;;;;;;;;;;;;;;10.66;85.17;100758.20;1693044;84;21829;-82
2022/11/11 14:11:55;;;;;;;;;;;;;;;10.59;85.56;100768.37;1684494;84;20237;-82
2022/11/11 14:14:45;;;;;;;;;;;;;;;10.51;85.93;100765.00;1673523;84;20198;-82
2022/11/11 14:17:31;;;;;;;;;;;;;;;10.45;86.60;100770.34;1693400;84;20206;-83
2022/11/11 14:20:35;;;;;;;;;;;;;;;10.40;87.18;100773.89;1693761;84;20226;-81
2022/11/11 14:23:40;;;;;;;;;;;;;;;10.36;87.58;100774.84;1693494;84;21148;-80
2022/11/11 14:26:26;;;;;;;;;;;;;;;10.30;88.08;100772.25;1693207;84;20273;-82
2022/11/11 14:29:17;;;;;;;;;;;;;;;10.26;88.54;100770.56;1692023;84;20167;-81
2022/11/11 14:32:15;;;;;;;;;;;;;;;10.26;88.75;100774.96;1689900;84;20218;-81
2022/11/11 14:35:13;;;;;;;;;;;;;;;10.25;89.00;100776.70;1676825;84;20179;-81
2022/11/11 14:38:02;;;;;;;;;;;;;;;10.25;89.31;100771.44;1678980;84;21796;-81
2022/11/11 14:40:47;;;;;;;;;;;;;;;10.21;89.32;100769.30;1668510;84;20202;-81
2022/11/11 14:43:37;;;;;;;;;;;;;;;10.20;89.58;100782.05;1663922;84;20215;-81
2022/11/11 14:46:21;;;;;;;;;;;;;;;10.20;89.69;100773.27;1691324;84;20219;-79
2022/11/11 14:49:07;;;;;;;;;;;;;;;10.20;89.78;100775.89;1678420;84;20207;-81
2022/11/11 14:51:59;;;;;;;;;;;;;;;10.19;89.78;100784.69;1680920;84;21351;-80
2022/11/11 14:55:06;;;;;;;;;;;;;;;10.14;89.96;100784.74;1674332;84;20144;-80
2022/11/11 14:57:58;;;;;;;;;;;;;;;10.09;90.12;100789.64;1691074;84;20473;-80
2022/11/11 15:01:00;;;;;;;;;;;;;;;10.02;90.51;100787.53;1683272;84;20179;-81
2022/11/11 15:03:48;;;;;;;;;;;;;;;9.94;90.73;100796.81;1665393;84;20262;-80
2022/11/11 15:06:53;;;;;;;;;;;;;;;9.89;91.17;100802.56;1690846;84;22600;-80
2022/11/11 15:10:09;;;;;;;;;;;;;;;9.90;91.48;100809.58;1686291;84;20194;-80
2022/11/11 15:13:15;;;;;;;;;;;;;;;9.84;92.05;100813.58;1685080;84;20235;-83
2022/11/11 15:16:32;;;;;;;;;;;;;;;9.74;92.52;100803.59;1680293;84;20143;-81
2022/11/11 15:19:44;;;;;;;;;;;;;;;9.73;92.78;100810.18;1693491;84;20215;-80
2022/11/11 15:22:32;;;;;;;;;;;;;;;9.67;93.12;100810.67;1693121;84;21261;-81
2022/11/11 15:25:33;;;;;;;;;;;;;;;9.63;93.32;100809.40;1680943;84;20198;-81
2022/11/11 15:28:42;;;;;;;;;;;;;;;9.61;93.45;100800.21;1678691;84;20483;-81
2022/11/11 15:31:37;;;;;;;;;;;;;;;9.61;93.33;100804.16;1669230;85;20158;-80
2022/11/11 15:34:42;;;;;;;;;;;;;;;9.57;93.47;100805.54;1678648;85;20187;-81